createdAt,value
2022-08-08T00:01:21.050Z,101690.06
2022-08-08T00:04:55.783Z,101689.19
2022-08-08T00:07:37.991Z,101689.13
2022-08-08T00:10:22.193Z,101689.06
2022-08-08T00:13:04.221Z,101688.09
2022-08-08T00:15:57.429Z,101693.28
2022-08-08T00:18:35.028Z,101691.63
2022-08-08T00:21:05.227Z,101677.63
2022-08-08T00:23:51.332Z,101693.47
2022-08-08T00:26:29.805Z,101679.44
2022-08-08T00:29:45.799Z,101682.06
2022-08-08T00:32:34.662Z,101682.00
2022-08-08T00:35:20.110Z,101679.38
2022-08-08T00:38:03.138Z,101681.97
2022-08-08T00:41:10.573Z,101681.94
2022-08-08T00:43:40.797Z,101677.59
2022-08-08T00:46:57.438Z,101680.19
2022-08-08T00:49:58.393Z,101680.16
2022-08-08T00:53:00.754Z,101678.41
2022-08-08T00:55:54.139Z,101671.47
2022-08-08T00:59:02.861Z,101675.78
2022-08-08T01:01:48.497Z,101673.91
2022-08-08T01:04:54.994Z,101684.41
2022-08-08T01:07:56.576Z,101681.81
2022-08-08T01:10:39.962Z,101683.53
2022-08-08T01:13:43.283Z,101678.28
2022-08-08T01:16:38.435Z,101689.59
2022-08-08T01:19:42.008Z,101692.94
2022-08-08T01:22:34.868Z,101685.88
2022-08-08T01:25:40.906Z,101691.13
2022-08-08T01:28:38.929Z,101694.47
2022-08-08T01:32:12.796Z,101690.63
2022-08-08T01:34:54.580Z,101682.00
2022-08-08T01:37:51.204Z,101676.69
2022-08-08T01:40:54.393Z,101676.72
2022-08-08T01:43:40.109Z,101679.53
2022-08-08T01:46:41.883Z,101672.31
2022-08-08T01:49:23.429Z,101676.69
2022-08-08T01:53:05.217Z,101670.56
2022-08-08T01:56:28.146Z,101680.03
2022-08-08T01:58:47.258Z,101665.94
2022-08-08T02:01:59.961Z,101678.75
2022-08-08T02:04:43.474Z,101676.31
2022-08-08T02:07:23.955Z,101684.91
2022-08-08T02:10:03.897Z,101688.47
2022-08-08T02:12:49.492Z,101690.19
2022-08-08T02:15:34.962Z,101690.03
2022-08-08T02:18:33.547Z,101702.31
2022-08-08T02:21:32.601Z,101689.19
2022-08-08T02:24:02.863Z,101693.69
2022-08-08T02:26:37.537Z,101695.59
2022-08-08T02:29:31.407Z,101697.28
2022-08-08T02:32:22.791Z,101693.84
2022-08-08T02:35:25.017Z,101700.91
2022-08-08T02:38:13.041Z,101687.06
2022-08-08T02:40:50.121Z,101688.84
2022-08-08T02:44:38.730Z,101688.69
2022-08-08T02:46:54.373Z,101688.63
2022-08-08T02:49:51.430Z,101693.53
2022-08-08T02:52:39.577Z,101688.31
2022-08-08T02:55:37.701Z,101688.31
2022-08-08T02:58:08.601Z,101689.00
2022-08-08T03:01:02.800Z,101688.91
2022-08-08T03:05:09.186Z,101688.91
2022-08-08T03:07:06.937Z,101689.03
2022-08-08T03:10:01.856Z,101686.41
2022-08-08T03:13:01.688Z,101696.53
2022-08-08T03:16:04.026Z,101698.25
2022-08-08T03:19:02.049Z,101707.66
2022-08-08T03:21:54.759Z,101710.28
2022-08-08T03:24:19.649Z,101712.00
2022-08-08T03:26:54.525Z,101702.44
2022-08-08T03:29:54.442Z,101711.28
2022-08-08T03:32:37.226Z,101707.34
2022-08-08T03:35:09.814Z,101710.91
2022-08-08T03:38:53.365Z,101712.69
2022-08-08T03:40:29.515Z,101717.06
2022-08-08T03:42:58.713Z,101713.59
2022-08-08T03:46:07.395Z,101716.19
2022-08-08T03:49:09.958Z,101710.97
2022-08-08T03:51:16.523Z,101711.03
2022-08-08T03:53:47.791Z,101720.78
2022-08-08T03:56:31.552Z,101726.91
2022-08-08T03:58:58.953Z,101725.13
2022-08-08T04:02:13.174Z,101712.78
2022-08-08T04:04:23.067Z,101717.19
2022-08-08T04:06:58.227Z,101727.47
2022-08-08T04:09:47.196Z,101719.44
2022-08-08T04:12:15.680Z,101727.31
2022-08-08T04:14:45.232Z,101726.47
2022-08-08T04:17:22.348Z,101720.31
2022-08-08T04:19:59.175Z,101723.97
2022-08-08T04:22:29.458Z,101721.94
2022-08-08T04:24:56.761Z,101719.22
2022-08-08T04:28:01.890Z,101721.88
2022-08-08T04:30:17.224Z,101723.94
2022-08-08T04:32:45.626Z,101721.44
2022-08-08T04:35:14.692Z,101724.97
2022-08-08T04:37:41.205Z,101723.31
2022-08-08T04:40:12.471Z,101725.28
2022-08-08T04:42:56.365Z,101728.72
2022-08-08T04:45:27.057Z,101733.13
2022-08-08T04:47:54.469Z,101735.75
2022-08-08T04:50:24.824Z,101734.00
2022-08-08T04:53:00.987Z,101739.19
2022-08-08T04:55:47.419Z,101731.31
2022-08-08T04:58:18.483Z,101731.47
2022-08-08T05:00:48.274Z,101738.53
2022-08-08T05:03:18.758Z,101743.94
2022-08-08T05:06:13.207Z,101744.84
2022-08-08T05:08:46.345Z,101737.97
2022-08-08T05:11:24.679Z,101734.41
2022-08-08T05:13:58.462Z,101751.16
2022-08-08T05:16:54.581Z,101757.13
2022-08-08T05:20:10.912Z,101760.44
2022-08-08T05:22:02.101Z,101764.56
2022-08-08T05:24:30.795Z,101762.31
2022-08-08T05:26:57.843Z,101763.50
2022-08-08T05:29:25.182Z,101764.44
2022-08-08T05:32:03.201Z,101755.94
2022-08-08T05:34:49.838Z,101764.91
2022-08-08T05:37:19.690Z,101761.38
2022-08-08T05:39:52.777Z,101766.66
2022-08-08T05:42:26.597Z,101761.34
2022-08-08T05:44:54.508Z,101759.97
2022-08-08T05:47:41.675Z,101767.13
2022-08-08T05:50:13.643Z,101773.50
2022-08-08T05:52:43.992Z,101777.06
2022-08-08T05:55:10.793Z,101771.81
2022-08-08T05:58:05.335Z,101777.94
2022-08-08T06:00:34.137Z,101780.53
2022-08-08T06:03:17.503Z,101777.06
2022-08-08T06:06:01.175Z,101775.41
2022-08-08T06:08:54.826Z,101774.63
2022-08-08T06:11:22.468Z,101778.91
2022-08-08T06:13:54.949Z,101767.75
2022-08-08T06:16:27.261Z,101772.31
2022-08-08T06:18:55.333Z,101776.59
2022-08-08T06:21:32.782Z,101770.59
2022-08-08T06:24:13.999Z,101780.34
2022-08-08T06:27:06.211Z,101790.88
2022-08-08T06:29:59.284Z,101792.69
2022-08-08T06:32:31.028Z,101790.81
2022-08-08T06:36:04.828Z,101789.88
2022-08-08T06:37:59.771Z,101787.41
2022-08-08T06:40:33.333Z,101788.44
2022-08-08T06:43:06.149Z,101786.72
2022-08-08T06:45:39.017Z,101787.56
2022-08-08T06:48:06.326Z,101785.81
2022-08-08T06:50:33.772Z,101791.94
2022-08-08T06:53:13.870Z,101795.50
2022-08-08T06:55:47.103Z,101793.81
2022-08-08T06:58:20.079Z,101792.06
2022-08-08T07:00:49.720Z,101794.72
2022-08-08T07:03:52.261Z,101792.09
2022-08-08T07:06:10.482Z,101800.00
2022-08-08T07:08:39.494Z,101801.75
2022-08-08T07:11:09.124Z,101802.56
2022-08-08T07:14:00.563Z,101802.59
2022-08-08T07:16:50.860Z,101797.34
2022-08-08T07:19:27.421Z,101803.47
2022-08-08T07:22:18.529Z,101803.47
2022-08-08T07:24:54.944Z,101810.47
2022-08-08T07:27:35.224Z,101806.97
2022-08-08T07:30:16.838Z,101802.56
2022-08-08T07:32:49.003Z,101805.97
2022-08-08T07:35:17.806Z,101818.28
2022-08-08T07:37:56.283Z,101813.03
2022-08-08T07:40:33.036Z,101816.25
2022-08-08T07:43:09.271Z,101817.13
2022-08-08T07:46:04.712Z,101812.47
2022-08-08T07:48:23.592Z,101812.41
2022-08-08T07:50:52.399Z,101824.72
2022-08-08T07:54:01.061Z,101823.84
2022-08-08T07:56:49.002Z,101823.72
2022-08-08T07:59:19.464Z,101834.09
2022-08-08T08:02:35.996Z,101833.00
2022-08-08T08:04:49.021Z,101829.63
2022-08-08T08:07:17.174Z,101818.97
2022-08-08T08:09:43.981Z,101839.09
2022-08-08T08:12:31.737Z,101840.88
2022-08-08T08:15:08.506Z,101841.63
2022-08-08T08:17:48.881Z,101838.75
2022-08-08T08:20:18.689Z,101835.00
2022-08-08T08:22:47.424Z,101831.75
2022-08-08T08:25:16.945Z,101841.63
2022-08-08T08:27:46.958Z,101845.38
2022-08-08T08:30:14.336Z,101845.13
2022-08-08T08:32:49.284Z,101839.75
2022-08-08T08:35:21.446Z,101838.56
2022-08-08T08:38:14.617Z,101843.22
2022-08-08T08:40:35.019Z,101840.72
2022-08-08T08:43:02.850Z,101842.19
2022-08-08T08:45:31.165Z,101835.31
2022-08-08T08:48:00.939Z,101844.84
2022-08-08T08:50:33.361Z,101836.78
2022-08-08T08:53:54.576Z,101834.84
2022-08-08T08:56:01.481Z,101839.69
2022-08-08T08:58:42.305Z,101838.72
2022-08-08T09:01:15.178Z,101832.34
2022-08-08T09:03:46.079Z,101838.19
2022-08-08T09:06:28.803Z,101842.66
2022-08-08T09:09:03.385Z,101845.28
2022-08-08T09:11:47.449Z,101834.16
2022-08-08T09:14:25.836Z,101840.25
2022-08-08T09:16:53.739Z,101844.97
2022-08-08T09:21:57.969Z,101848.72
2022-08-08T09:22:07.859Z,101857.59
2022-08-08T09:24:35.978Z,101849.16
2022-08-08T09:27:15.050Z,101845.97
2022-08-08T09:30:17.164Z,101848.22
2022-08-08T09:33:55.620Z,101849.28
2022-08-08T09:35:49.850Z,101848.53
2022-08-08T09:38:59.194Z,101848.03
2022-08-08T09:42:14.262Z,101845.19
2022-08-08T09:44:48.621Z,101848.53
2022-08-08T09:47:26.689Z,101835.72
2022-08-08T09:50:16.211Z,101834.34
2022-08-08T09:52:59.091Z,101834.06
2022-08-08T09:55:51.424Z,101832.31
2022-08-08T09:58:26.082Z,101826.38
2022-08-08T10:01:15.350Z,101841.47
2022-08-08T10:03:57.448Z,101823.75
2022-08-08T10:06:29.385Z,101835.59
2022-08-08T10:08:56.730Z,101837.47
2022-08-08T10:12:27.671Z,101838.38
2022-08-08T10:14:28.443Z,101840.56
2022-08-08T10:16:58.747Z,101837.50
2022-08-08T10:19:46.128Z,101835.84
2022-08-08T10:22:23.882Z,101830.41
2022-08-08T10:25:00.089Z,101835.78
2022-08-08T10:27:34.574Z,101828.66
2022-08-08T10:30:03.855Z,101821.59
2022-08-08T10:32:48.440Z,101819.09
2022-08-08T10:35:20.576Z,101831.66
2022-08-08T10:38:08.532Z,101831.91
2022-08-08T10:40:37.944Z,101822.41
2022-08-08T10:43:05.559Z,101824.66
2022-08-08T10:45:56.619Z,101813.22
2022-08-08T10:48:57.496Z,101827.75
2022-08-08T10:51:31.347Z,101823.88
2022-08-08T10:54:07.123Z,101819.72
2022-08-08T10:56:35.630Z,101828.69
2022-08-08T10:59:12.172Z,101821.63
2022-08-08T11:01:46.597Z,101822.44
2022-08-08T11:04:29.695Z,101817.03
2022-08-08T11:07:06.776Z,101813.53
2022-08-08T11:09:34.313Z,101810.34
2022-08-08T11:12:12.412Z,101823.13
2022-08-08T11:14:53.677Z,101819.06
2022-08-08T11:17:59.992Z,101812.34
2022-08-08T11:20:18.052Z,101815.59
2022-08-08T11:22:51.006Z,101808.78
2022-08-08T11:25:19.433Z,101811.44
2022-08-08T11:28:08.782Z,101815.25
2022-08-08T11:30:40.941Z,101816.25
2022-08-08T11:33:19.180Z,101815.53
2022-08-08T11:35:46.696Z,101808.25
2022-08-08T11:38:39.341Z,101804.44
2022-08-08T11:41:01.719Z,101801.56
2022-08-08T11:43:39.605Z,101787.81
2022-08-08T11:46:14.071Z,101794.00
2022-08-08T11:48:47.103Z,101792.53
2022-08-08T11:51:30.444Z,101791.41
2022-08-08T11:54:04.206Z,101785.44
2022-08-08T11:56:35.499Z,101796.50
2022-08-08T11:59:10.428Z,101794.97
2022-08-08T12:01:37.543Z,101794.66
2022-08-08T12:04:05.925Z,101791.19
2022-08-08T12:06:33.751Z,101801.31
2022-08-08T12:09:08.690Z,101804.50
2022-08-08T12:11:41.414Z,101800.75
2022-08-08T12:14:11.061Z,101798.53
2022-08-08T12:16:49.180Z,101798.25
2022-08-08T12:19:15.941Z,101796.63
2022-08-08T12:22:00.492Z,101789.47
2022-08-08T12:24:51.533Z,101799.81
2022-08-08T12:27:26.886Z,101788.53
2022-08-08T12:29:59.978Z,101790.56
2022-08-08T12:32:31.466Z,101783.41
2022-08-08T12:35:04.191Z,101786.63
2022-08-08T12:37:40.182Z,101784.03
2022-08-08T12:40:22.883Z,101788.25
2022-08-08T12:42:51.672Z,101778.91
2022-08-08T12:45:54.584Z,101796.09
2022-08-08T12:48:10.083Z,101786.75
2022-08-08T12:50:58.243Z,101788.75
2022-08-08T12:53:29.952Z,101792.56
2022-08-08T12:56:19.530Z,101782.88
2022-08-08T12:58:54.561Z,101787.06
2022-08-08T13:01:34.999Z,101786.34
2022-08-08T13:04:18.691Z,101782.97
2022-08-08T13:06:56.740Z,101775.19
2022-08-08T13:09:30.242Z,101761.75
2022-08-08T13:12:18.115Z,101767.47
2022-08-08T13:14:53.042Z,101772.94
2022-08-08T13:18:08.878Z,101762.31
2022-08-08T13:20:14.003Z,101777.81
2022-08-08T13:22:44.634Z,101769.84
2022-08-08T13:25:21.329Z,101774.69
2022-08-08T13:27:56.493Z,101770.28
2022-08-08T13:30:26.176Z,101775.25
2022-08-08T13:32:58.709Z,101751.75
2022-08-08T13:35:29.455Z,101770.72
2022-08-08T13:38:08.073Z,101778.25
2022-08-08T13:40:40.964Z,101770.69
2022-08-08T13:43:08.484Z,101779.38
2022-08-08T13:45:36.829Z,101770.84
2022-08-08T13:48:08.590Z,101777.09
2022-08-08T13:50:43.248Z,101767.25
2022-08-08T13:53:28.105Z,101769.34
2022-08-08T13:56:05.136Z,101769.75
2022-08-08T13:58:36.119Z,101774.16
2022-08-08T14:01:41.571Z,101772.16
2022-08-08T14:04:52.917Z,101768.16
2022-08-08T14:07:45.514Z,101771.44
2022-08-08T14:13:38.676Z,101774.44
2022-08-08T14:16:46.773Z,101760.44
2022-08-08T14:20:07.610Z,101770.53
2022-08-08T14:23:03.648Z,101764.88
2022-08-08T14:26:30.040Z,101770.75
2022-08-08T14:29:11.776Z,101766.72
2022-08-08T14:35:11.054Z,101764.31
2022-08-08T14:38:00.299Z,101768.69
2022-08-08T14:44:13.229Z,101756.38
2022-08-08T14:50:38.410Z,101763.81
2022-08-08T14:53:28.576Z,101763.03
2022-08-08T14:56:29.382Z,101763.06
2022-08-08T14:59:04.802Z,101765.03
2022-08-08T15:02:03.170Z,101745.81
2022-08-08T15:04:46.608Z,101746.84
2022-08-08T15:07:40.390Z,101746.47
2022-08-08T15:10:13.174Z,101749.03
2022-08-08T15:13:10.643Z,101745.91
2022-08-08T15:16:39.178Z,101757.00
2022-08-08T15:19:35.049Z,101758.97
2022-08-08T15:22:17.889Z,101737.19
2022-08-08T15:25:08.518Z,101739.16
2022-08-08T15:28:03.971Z,101750.16
2022-08-08T15:30:48.834Z,101749.34
2022-08-08T15:33:38.322Z,101747.13
2022-08-08T15:36:18.667Z,101750.56
2022-08-08T15:39:04.094Z,101750.50
2022-08-08T15:41:55.170Z,101755.78
2022-08-08T15:44:38.640Z,101751.75
2022-08-08T15:47:28.174Z,101751.41
2022-08-08T15:50:09.682Z,101754.13
2022-08-08T15:53:20.024Z,101755.75
2022-08-08T15:55:47.338Z,101751.16
2022-08-08T15:58:16.736Z,101753.63
2022-08-08T16:00:47.323Z,101754.28
2022-08-08T16:03:17.189Z,101766.13
2022-08-08T16:06:01.030Z,101753.88
2022-08-08T16:08:28.849Z,101757.38
2022-08-08T16:13:02.255Z,101758.53
2022-08-08T16:13:46.296Z,101756.78
2022-08-08T16:16:17.935Z,101763.03
2022-08-08T16:18:57.366Z,101750.09
2022-08-08T16:21:27.703Z,101758.94
2022-08-08T16:23:56.121Z,101751.59
2022-08-08T16:26:33.993Z,101753.75
2022-08-08T16:29:02.406Z,101754.25
2022-08-08T16:31:29.966Z,101757.75
2022-08-08T16:33:59.389Z,101763.88
2022-08-08T16:36:34.047Z,101748.09
2022-08-08T16:39:01.461Z,101750.06
2022-08-08T16:41:36.968Z,101746.22
2022-08-08T16:44:04.738Z,101749.34
2022-08-08T16:46:36.595Z,101748.19
2022-08-08T16:49:11.560Z,101749.41
2022-08-08T16:55:04.908Z,101757.66
2022-08-08T16:55:24.387Z,101754.13
2022-08-08T16:57:23.222Z,101751.41
2022-08-08T17:00:06.172Z,101752.25
2022-08-08T17:02:39.248Z,101751.97
2022-08-08T17:05:08.247Z,101754.53
2022-08-08T17:07:37.939Z,101754.28
2022-08-08T17:10:08.993Z,101759.34
2022-08-08T17:12:36.658Z,101765.13
2022-08-08T17:15:17.804Z,101774.41
2022-08-08T17:18:02.225Z,101759.28
2022-08-08T17:20:33.337Z,101760.22
2022-08-08T17:23:25.707Z,101764.28
2022-08-08T17:25:54.344Z,101765.09
2022-08-08T17:28:34.509Z,101781.94
2022-08-08T17:31:39.444Z,101782.13
2022-08-08T17:34:54.038Z,101780.78
2022-08-08T17:36:53.775Z,101780.19
2022-08-08T17:40:04.335Z,101783.13
2022-08-08T17:42:14.053Z,101773.50
2022-08-08T17:44:44.520Z,101775.31
2022-08-08T17:47:23.335Z,101779.69
2022-08-08T17:50:01.328Z,101777.75
2022-08-08T17:52:35.118Z,101783.59
2022-08-08T17:55:05.145Z,101791.16
2022-08-08T17:57:35.191Z,101778.16
2022-08-08T18:00:06.601Z,101788.53
2022-08-08T18:02:40.110Z,101777.47
2022-08-08T18:05:14.685Z,101782.13
2022-08-08T18:08:01.897Z,101790.94
2022-08-08T18:10:31.331Z,101794.72
2022-08-08T18:12:58.157Z,101797.81
2022-08-08T18:15:25.133Z,101793.09
2022-08-08T18:18:05.285Z,101799.63
2022-08-08T18:20:52.215Z,101799.97
2022-08-08T18:23:22.232Z,101802.50
2022-08-08T18:25:50.122Z,101796.59
2022-08-08T18:28:23.391Z,101800.16
2022-08-08T18:30:52.269Z,101807.47
2022-08-08T18:33:20.003Z,101805.69
2022-08-08T18:36:10.198Z,101801.56
2022-08-08T18:38:46.341Z,101806.34
2022-08-08T18:41:15.817Z,101803.53
2022-08-08T18:43:43.528Z,101804.38
2022-08-08T18:46:54.803Z,101798.56
2022-08-08T18:48:57.847Z,101810.13
2022-08-08T18:51:48.265Z,101814.59
2022-08-08T18:54:22.035Z,101815.59
2022-08-08T18:56:49.973Z,101820.13
2022-08-08T18:59:17.018Z,101816.69
2022-08-08T19:02:26.411Z,101828.41
2022-08-08T19:04:31.008Z,101834.25
2022-08-08T19:06:57.595Z,101836.22
2022-08-08T19:09:48.248Z,101840.53
2022-08-08T19:12:13.493Z,101844.31
2022-08-08T19:14:40.265Z,101855.06
2022-08-08T19:17:10.567Z,101855.72
2022-08-08T19:19:37.616Z,101858.69
2022-08-08T19:22:11.079Z,101848.31
2022-08-08T19:24:49.106Z,101878.34
2022-08-08T19:27:56.465Z,101874.19
2022-08-08T19:30:18.094Z,101870.84
2022-08-08T19:32:51.353Z,101883.47
2022-08-08T19:35:20.048Z,101884.25
2022-08-08T19:37:57.646Z,101876.56
2022-08-08T19:40:31.130Z,101884.34
2022-08-08T19:43:03.575Z,101883.00
2022-08-08T19:45:59.156Z,101888.44
2022-08-08T19:48:29.486Z,101883.34
2022-08-08T19:51:00.781Z,101888.84
2022-08-08T19:53:51.203Z,101896.19
2022-08-08T19:56:16.374Z,101899.94
2022-08-08T19:58:52.910Z,101900.91
2022-08-08T20:01:31.619Z,101895.78
2022-08-08T20:04:08.413Z,101899.19
2022-08-08T20:06:35.834Z,101901.81
2022-08-08T20:09:04.640Z,101900.03
2022-08-08T20:11:42.836Z,101907.91
2022-08-08T20:14:13.280Z,101899.38
2022-08-08T20:16:56.693Z,101909.13
2022-08-08T20:19:26.304Z,101902.28
2022-08-08T20:22:03.085Z,101903.84
2022-08-08T20:24:31.981Z,101916.00
2022-08-08T20:26:58.552Z,101910.91
2022-08-08T20:29:25.898Z,101912.69
2022-08-08T20:32:14.087Z,101912.69
2022-08-08T20:34:47.926Z,101913.53
2022-08-08T20:37:20.479Z,101922.53
2022-08-08T20:39:51.193Z,101916.28
2022-08-08T20:42:29.149Z,101925.22
2022-08-08T20:44:57.708Z,101912.94
2022-08-08T20:47:25.518Z,101927.00
2022-08-08T20:49:55.818Z,101922.63
2022-08-08T20:52:26.106Z,101915.56
2022-08-08T20:54:52.706Z,101929.44
2022-08-08T20:57:21.082Z,101933.09
2022-08-08T20:59:48.436Z,101927.97
2022-08-08T21:02:25.231Z,101927.97
2022-08-08T21:05:00.850Z,101920.00
2022-08-08T21:07:47.134Z,101926.06
2022-08-08T21:10:14.840Z,101928.81
2022-08-08T21:12:44.603Z,101929.69
2022-08-08T21:15:16.605Z,101927.06
2022-08-08T21:17:59.681Z,101923.50
2022-08-08T21:20:34.020Z,101930.66
2022-08-08T21:23:01.538Z,101929.78
2022-08-08T21:25:29.171Z,101925.44
2022-08-08T21:28:09.625Z,101934.13
2022-08-08T21:30:42.733Z,101928.75
2022-08-08T21:33:12.225Z,101930.47
2022-08-08T21:36:16.156Z,101934.00
2022-08-08T21:38:27.011Z,101939.41
2022-08-08T21:40:56.239Z,101937.75
2022-08-08T21:43:25.816Z,101943.88
2022-08-08T21:48:05.671Z,101952.66
2022-08-08T21:48:49.365Z,101939.44
2022-08-08T21:51:20.283Z,101939.41
2022-08-08T21:54:36.071Z,101943.06
2022-08-08T21:56:54.058Z,101929.00
2022-08-08T21:59:20.873Z,101938.63
2022-08-08T22:01:52.034Z,101938.69
2022-08-08T22:04:22.196Z,101935.16
2022-08-08T22:06:51.791Z,101940.41
2022-08-08T22:09:18.407Z,101936.00
2022-08-08T22:12:02.208Z,101942.16
2022-08-08T22:14:33.185Z,101942.25
2022-08-08T22:17:01.138Z,101941.38
2022-08-08T22:19:29.482Z,101945.75
2022-08-08T22:21:56.770Z,101944.91
2022-08-08T22:24:28.546Z,101952.78
2022-08-08T22:27:02.366Z,101958.03
2022-08-08T22:29:59.127Z,101949.25
2022-08-08T22:32:18.846Z,101956.31
2022-08-08T22:34:51.345Z,101957.19
2022-08-08T22:37:27.913Z,101956.25
2022-08-08T22:40:12.042Z,101959.78
2022-08-08T22:42:45.775Z,101964.19
2022-08-08T22:45:14.199Z,101970.34
2022-08-08T22:47:47.223Z,101965.09
2022-08-08T22:50:27.317Z,101961.56
2022-08-08T22:54:28.347Z,101976.53
2022-08-08T22:55:57.993Z,101975.63
2022-08-08T22:58:34.382Z,101969.47
2022-08-08T23:01:26.585Z,101973.84
2022-08-08T23:03:55.944Z,101968.63
2022-08-08T23:06:24.261Z,101959.81
2022-08-08T23:08:58.345Z,101972.13
2022-08-08T23:12:17.711Z,101975.66
2022-08-08T23:14:18.510Z,101980.88
2022-08-08T23:16:48.202Z,101987.94
2022-08-08T23:19:21.194Z,101980.03
2022-08-08T23:21:48.889Z,101978.25
2022-08-08T23:24:22.505Z,101981.78
2022-08-08T23:26:55.313Z,101980.91
2022-08-08T23:29:23.871Z,101983.53
2022-08-08T23:31:50.339Z,101980.00
2022-08-08T23:34:19.581Z,101983.53
2022-08-08T23:36:48.255Z,101986.16
2022-08-08T23:39:15.617Z,101979.16
2022-08-08T23:41:46.968Z,101983.53
2022-08-08T23:44:18.689Z,101986.16
2022-08-08T23:49:02.530Z,101987.03
2022-08-08T23:49:33.433Z,101992.31
2022-08-08T23:52:04.094Z,101997.56
2022-08-08T23:54:43.053Z,101981.75
2022-08-08T23:57:26.230Z,101976.47
